الصفحة الرئيسية
METAR-TAF:

METAR-TAF

مطار :

مطار بغداد الدولي

بغداد, العراق

دائرة عرض: 33-15-45N, خط طول: 44-14-04E, ارتفاع: 35 متر

مراقبة الطقس الحالي

تاريخ ووقت الإصدار 27 دقيقة قبل الساعة 07:00UTC
ريح 15 عقدة من الشمال الغربي
درجة الحرارة 37°درجة مئوية
الرطوبة 29%
ضغط 1004 hPa
الرؤية 10 كم أو أكثر
الغيوم لا تقل 1500 م ولا وجود لمزنة ركامية السحاب الأسود

METAR: ORBI 240700Z 31015KT CAVOK 37/16 Q1004 NOSIG

زمن: 10:27 (07:27 UTC)

توقعات

تاريخ ووقت الإصدار 3ساعات و 27 دقيقة قبل الساعة 04:00UTC
التوقعات صالحة من24 الساعة 06 UTC إلى 25 الساعة 06 UTC
ريح 12 عقدة من الشمال الغربي
الرؤية: 8000 متر

TAF: ORBI 240400Z 2406/2506 32012KT 8000 NSC

أرصاد الطقس والتوقعات من أكثر من 4000 مطار (تقارير الطقس للمطار METAR والتنبؤ بالطقس بالمطارTAF).

المحطات المتاحة هي النقط الصفراء والحمراء على الخريطة.

حرك المؤشر فوق النقطة لمعرفة اسم المحطة.

ثم انقر لمعرفة أرصاد وتوقعات الطقس.

لتغيير الخارطة: اضغط على الأزرار الخضراء مع رمز الصليب الأسود للتكبير. على الزر الأخضر مع شرطة للتصغير، أو على الأسهم الخضراء للخرائط المجاورة.


METAR-TAF: